Time;durP1;ratioP1;P1;durP2;ratioP2;P2;SDS_P1;SDS_P2;PMS_P1;PMS_P2;Temp;Humidity;BMP_temperature;BMP_pressure;BME280_temperature;BME280_humidity;BME280_pressure;Samples;Min_cycle;Max_cycle;Signal;HPM_P1;HPM_P2
2022/01/24 00:02:18;;;;;;;54.78;37.05;;;;;;;4.74;88.46;103428.34;5021142;28;20025;-77
2022/01/24 00:04:44;;;;;;;53.33;34.60;;;;;;;4.72;87.45;103419.66;5044540;28;20025;-77
2022/01/24 00:07:09;;;;;;;48.05;32.58;;;;;;;4.72;87.01;103424.88;5027887;28;20492;-77
2022/01/24 00:09:36;;;;;;;47.40;33.25;;;;;;;4.69;86.35;103417.94;5027660;28;20029;-77
2022/01/24 00:12:14;;;;;;;51.13;34.83;;;;;;;4.70;86.12;103416.19;5030421;28;20021;-77
2022/01/24 00:17:47;;;;;;;53.95;34.47;;;;;;;4.65;83.52;103420.59;5023759;28;20099;-77
2022/01/24 00:28:26;;;;;;;46.05;31.48;;;;;;;4.61;84.82;103422.34;5010493;28;20048;-77
2022/01/24 00:30:52;;;;;;;42.35;27.63;;;;;;;4.60;83.79;103419.75;5025270;28;20034;-77
2022/01/24 00:33:20;;;;;;;40.75;27.20;;;;;;;4.60;83.03;103419.75;5019528;28;20038;-77
2022/01/24 00:35:47;;;;;;;40.05;27.58;;;;;;;4.58;82.33;103411.09;5019070;28;20095;-77
2022/01/24 00:38:13;;;;;;;43.10;28.92;;;;;;;4.57;83.73;103410.22;5027310;28;20029;-77
2022/01/24 00:40:39;;;;;;;43.75;28.77;;;;;;;4.57;82.97;103409.38;5029651;28;20029;-77
2022/01/24 00:43:16;;;;;;;40.40;27.95;;;;;;;4.57;83.88;103411.97;5026323;28;20017;-77
2022/01/24 00:46:07;;;;;;;44.67;28.42;;;;;;;4.54;83.53;103404.19;5010969;28;20045;-77
2022/01/24 00:53:49;;;;;;;40.83;27.48;;;;;;;4.54;83.20;103414.59;5009611;28;20123;-77
2022/01/24 00:56:14;;;;;;;45.15;28.67;;;;;;;4.55;82.88;103416.34;5014855;28;20029;-77
2022/01/24 00:58:40;;;;;;;40.85;27.80;;;;;;;4.54;83.02;103415.47;5035508;28;20501;-77
2022/01/24 01:01:06;;;;;;;45.25;29.38;;;;;;;4.53;83.07;103412.88;5046382;28;20528;-77
2022/01/24 01:03:32;;;;;;;43.05;28.65;;;;;;;4.55;82.96;103421.53;5034717;28;20025;-77
2022/01/24 01:06:09;;;;;;;44.88;29.85;;;;;;;4.55;83.63;103408.50;5035283;28;20637;-77
2022/01/24 01:19:39;;;;;;;48.25;30.65;;;;;;;4.53;83.78;103408.53;5035802;28;20049;-77
2022/01/24 01:22:04;;;;;;;46.50;30.52;;;;;;;4.53;84.57;103399.84;5035442;28;20017;-77
2022/01/24 01:24:34;;;;;;;44.72;29.27;;;;;;;4.52;83.45;103395.50;5034626;28;20017;-77
2022/01/24 01:27:06;;;;;;;42.15;29.02;;;;;;;4.53;82.39;103397.22;5023469;28;20083;-77
2022/01/24 01:29:45;;;;;;;40.72;28.35;;;;;;;4.50;82.97;103398.13;5022209;28;20892;-77
2022/01/24 01:56:05;;;;;;;45.90;30.05;;;;;;;4.48;84.27;103410.31;5029273;28;20038;-77
2022/01/24 01:58:31;;;;;;;45.08;29.35;;;;;;;4.48;84.10;103401.63;5029118;28;20036;-77
2022/01/24 02:00:59;;;;;;;40.70;27.27;;;;;;;4.46;82.84;103400.75;5033647;28;20405;-77
2022/01/24 02:03:26;;;;;;;43.05;28.15;;;;;;;4.45;83.00;103399.03;5028580;28;20030;-77
2022/01/24 02:05:52;;;;;;;37.90;26.67;;;;;;;4.44;82.33;103397.31;5033262;28;20048;-77
2022/01/24 02:08:18;;;;;;;38.88;26.33;;;;;;;4.43;82.24;103401.66;5050271;28;20474;-77
2022/01/24 02:10:44;;;;;;;40.05;26.95;;;;;;;4.40;81.59;103397.34;5033882;28;20029;-77
2022/01/24 02:13:11;;;;;;;38.17;25.88;;;;;;;4.42;81.17;103399.06;5028600;28;20025;-76
2022/01/24 02:15:56;;;;;;;36.10;24.63;;;;;;;4.39;79.56;103395.56;5010763;28;20184;-76
2022/01/24 02:23:41;;;;;;;40.00;27.27;;;;;;;4.35;82.16;103380.84;5031367;28;20036;-76
2022/01/24 02:26:11;;;;;;;42.38;28.08;;;;;;;4.37;80.47;103386.03;5025977;28;20017;-76
2022/01/24 02:34:26;;;;;;;42.60;28.13;;;;;;;4.33;80.07;103379.97;5027935;28;20401;-76
2022/01/24 02:36:53;;;;;;;40.50;28.30;;;;;;;4.34;81.07;103384.31;5031856;28;20128;-76
2022/01/24 02:50:07;;;;;;;43.15;28.50;;;;;;;4.34;81.08;103376.50;5017570;28;20047;-76
2022/01/24 02:52:32;;;;;;;41.92;27.88;;;;;;;4.31;81.92;103373.91;5030158;28;20544;-76
2022/01/24 02:54:57;;;;;;;42.33;28.55;;;;;;;4.34;81.29;103375.63;5029160;28;20097;-76
2022/01/24 02:57:23;;;;;;;44.67;29.35;;;;;;;4.30;81.76;103369.59;5019335;28;20489;-76
2022/01/24 02:59:48;;;;;;;43.83;29.70;;;;;;;4.33;82.74;103368.69;5031604;28;20033;-76
2022/01/24 03:02:13;;;;;;;41.95;28.67;;;;;;;4.33;81.99;103379.97;5015124;28;20033;-76
2022/01/24 03:04:39;;;;;;;42.10;28.10;;;;;;;4.30;81.00;103372.19;5025566;28;20556;-76
2022/01/24 03:07:05;;;;;;;45.03;29.33;;;;;;;4.29;81.10;103367.84;5010902;28;20037;-76
2022/01/24 03:09:30;;;;;;;42.15;29.50;;;;;;;4.30;81.19;103363.50;5010870;28;20022;-76
2022/01/24 03:14:27;;;;;;;45.20;29.00;;;;;;;4.30;81.59;103366.13;5023154;28;20499;-76
2022/01/24 03:16:53;;;;;;;43.03;29.63;;;;;;;4.29;82.29;103362.63;5030456;28;20028;-76
2022/01/24 03:19:22;;;;;;;40.40;27.77;;;;;;;4.25;81.40;103363.53;5025423;28;20386;-76
2022/01/24 03:21:48;;;;;;;42.58;29.33;;;;;;;4.28;83.22;103362.66;5010243;28;20030;-76
2022/01/24 03:24:14;;;;;;;45.20;30.02;;;;;;;4.27;81.81;103363.53;5015555;28;20497;-76
2022/01/24 03:26:40;;;;;;;41.17;28.33;;;;;;;4.28;81.37;103360.91;5030638;28;20477;-77
2022/01/24 03:29:06;;;;;;;43.70;28.98;;;;;;;4.27;82.85;103358.31;5030912;28;20048;-76
2022/01/24 03:31:33;;;;;;;43.85;29.00;;;;;;;4.25;81.78;103350.50;5029588;28;20029;-77
2022/01/24 03:33:59;;;;;;;42.05;27.75;;;;;;;4.25;81.25;103353.13;5030169;28;20021;-76
2022/01/24 03:36:24;;;;;;;44.83;29.20;;;;;;;4.24;83.13;103355.75;5030025;28;20060;-77
2022/01/24 03:38:49;;;;;;;44.47;28.73;;;;;;;4.25;82.54;103355.72;5028758;28;20025;-76
2022/01/24 03:41:15;;;;;;;45.75;29.55;;;;;;;4.25;83.61;103358.34;5030139;28;20060;-76
2022/01/24 03:43:40;;;;;;;43.33;30.00;;;;;;;4.26;83.50;103357.44;5029837;28;20117;-77
2022/01/24 03:48:51;;;;;;;42.03;28.45;;;;;;;4.24;83.49;103359.22;5030377;28;20041;-77
2022/01/24 03:51:18;;;;;;;43.78;28.27;;;;;;;4.21;82.41;103359.22;5043202;28;20013;-76
2022/01/24 03:53:45;;;;;;;43.15;27.92;;;;;;;4.21;81.92;103359.22;5021642;28;20041;-76
2022/01/24 03:56:11;;;;;;;43.05;28.80;;;;;;;4.20;83.47;103359.25;5011551;28;20034;-77
2022/01/24 03:58:37;;;;;;;44.20;29.95;;;;;;;4.21;83.42;103360.97;5022401;28;20048;-76
2022/01/24 04:01:05;;;;;;;42.67;29.60;;;;;;;4.18;81.91;103356.66;5030625;28;20104;-77
2022/01/24 04:03:30;;;;;;;43.78;29.02;;;;;;;4.18;81.94;103351.44;5030220;28;20446;-77
2022/01/24 04:05:55;;;;;;;42.53;28.45;;;;;;;4.17;81.55;103352.31;5029798;28;20053;-77
2022/01/24 04:08:21;;;;;;;43.22;29.48;;;;;;;4.15;82.09;103354.06;5030205;28;20029;-76
2022/01/24 04:10:50;;;;;;;44.13;29.63;;;;;;;4.15;83.13;103353.19;5016869;28;20030;-77
2022/01/24 04:13:27;;;;;;;43.20;28.77;;;;;;;4.15;83.36;103348.84;5017996;28;20106;-76
2022/01/24 04:24:07;;;;;;;46.33;30.40;;;;;;;4.11;83.37;103352.38;4988522;28;20515;-77
2022/01/24 04:26:34;;;;;;;43.55;30.40;;;;;;;4.12;82.75;103353.22;4970276;28;20037;-77
2022/01/24 04:29:00;;;;;;;42.88;30.20;;;;;;;4.12;82.62;103348.00;5027540;28;20079;-77
2022/01/24 04:31:26;;;;;;;45.60;31.55;;;;;;;4.11;83.43;103343.69;5028944;28;20033;-76
2022/01/24 04:33:52;;;;;;;45.65;31.00;;;;;;;4.09;82.97;103348.91;5023738;28;20068;-76
2022/01/24 04:36:18;;;;;;;44.53;30.55;;;;;;;4.09;84.15;103348.91;5018199;28;20046;-77
2022/01/24 04:38:45;;;;;;;43.55;29.00;;;;;;;4.06;82.41;103348.94;5009656;28;20014;-77
2022/01/24 04:41:33;;;;;;;44.15;29.58;;;;;;;4.08;82.57;103355.00;5008875;28;20025;-77
2022/01/24 04:52:23;;;;;;;42.38;28.23;;;;;;;4.03;83.50;103355.03;5015393;28;20545;-77
2022/01/24 04:54:49;;;;;;;41.22;27.90;;;;;;;4.03;83.77;103356.75;5028500;28;20021;-76
2022/01/24 04:57:21;;;;;;;46.58;29.48;;;;;;;4.02;82.92;103357.63;5028838;28;20499;-77
2022/01/24 04:59:50;;;;;;;45.60;28.73;;;;;;;3.99;83.60;103358.50;5029687;28;20502;-76
2022/01/24 05:02:17;;;;;;;41.80;27.60;;;;;;;3.99;83.04;103362.84;5022107;28;20053;-77
2022/01/24 05:04:42;;;;;;;43.95;30.20;;;;;;;3.97;83.19;103357.63;5010651;28;20022;-77
2022/01/24 05:07:08;;;;;;;41.80;28.58;;;;;;;3.97;82.69;103364.59;5026887;28;20103;-76
2022/01/24 05:09:41;;;;;;;41.72;28.80;;;;;;;3.96;83.73;103365.47;5026914;28;20044;-77
2022/01/24 05:12:27;;;;;;;41.55;27.77;;;;;;;3.96;82.66;103368.06;5029981;28;20057;-77
2022/01/24 05:25:49;;;;;;;40.50;27.08;;;;;;;3.84;81.55;103362.94;5010228;28;20037;-76
2022/01/24 05:28:15;;;;;;;42.80;27.83;;;;;;;3.82;81.74;103354.28;5016930;28;20021;-77
2022/01/24 05:30:44;;;;;;;39.90;27.42;;;;;;;3.84;81.68;103368.16;5028793;28;20473;-76
2022/01/24 05:33:09;;;;;;;44.72;28.13;;;;;;;3.83;81.63;103353.41;5027163;28;20108;-76
2022/01/24 05:35:35;;;;;;;41.90;27.05;;;;;;;3.80;81.80;103356.88;5029050;28;20139;-76
2022/01/24 05:38:00;;;;;;;44.53;28.25;;;;;;;3.79;82.39;103349.94;5028651;28;20125;-77
2022/01/24 05:40:26;;;;;;;39.38;27.48;;;;;;;3.78;81.70;103354.28;5010789;28;20036;-76
2022/01/24 05:42:51;;;;;;;37.55;26.83;;;;;;;3.79;81.84;103355.16;5028971;28;20098;-77
2022/01/24 05:45:17;;;;;;;41.90;27.55;;;;;;;3.77;81.71;103349.94;5028203;28;20034;-77
2022/01/24 05:47:42;;;;;;;41.05;27.67;;;;;;;3.76;81.95;103350.81;5031370;28;20104;-77
2022/01/24 05:50:08;;;;;;;41.13;27.83;;;;;;;3.77;82.78;103357.75;5048154;28;20025;-77
2022/01/24 05:52:33;;;;;;;40.67;27.48;;;;;;;3.77;83.14;103362.97;5030316;28;20029;-77
2022/01/24 05:54:59;;;;;;;40.60;27.35;;;;;;;3.75;82.27;103358.66;5019571;28;20398;-76
2022/01/24 05:57:24;;;;;;;39.83;26.70;;;;;;;3.76;81.68;103361.25;5012934;28;20219;-77
2022/01/24 05:59:50;;;;;;;41.17;26.63;;;;;;;3.74;82.01;103365.59;5032187;28;20025;-77
2022/01/24 06:02:15;;;;;;;40.17;26.05;;;;;;;3.73;82.44;103361.25;5029796;28;20030;-77
2022/01/24 06:04:40;;;;;;;40.58;25.65;;;;;;;3.70;81.94;103363.03;5030382;28;20048;-77
2022/01/24 06:07:06;;;;;;;39.28;26.20;;;;;;;3.70;83.09;103366.50;5047592;28;20083;-77
2022/01/24 06:09:31;;;;;;;38.25;25.85;;;;;;;3.72;83.03;103362.13;5032269;28;20033;-77
2022/01/24 06:11:56;;;;;;;39.45;25.48;;;;;;;3.70;82.30;103366.50;5024641;28;20030;-77
2022/01/24 06:14:22;;;;;;;37.80;26.15;;;;;;;3.68;82.22;103363.03;5012457;28;20054;-77
2022/01/24 06:16:47;;;;;;;41.47;26.85;;;;;;;3.68;82.66;103357.81;5021802;28;20044;-77
2022/01/24 06:19:12;;;;;;;40.13;25.85;;;;;;;3.69;82.58;103369.09;5032014;28;20100;-77
2022/01/24 06:21:38;;;;;;;38.22;25.52;;;;;;;3.66;82.87;103358.69;5032562;28;20026;-77
2022/01/24 06:24:03;;;;;;;41.15;25.98;;;;;;;3.67;82.78;103355.22;5033008;28;20465;-77
2022/01/24 06:26:29;;;;;;;36.20;25.25;;;;;;;3.67;82.64;103360.44;5031139;28;20422;-77
2022/01/24 06:28:55;;;;;;;40.08;25.65;;;;;;;3.65;83.30;103365.66;5027682;28;20060;-77
2022/01/24 06:31:20;;;;;;;39.05;26.10;;;;;;;3.67;83.79;103368.25;5022340;28;20050;-77
2022/01/24 06:33:48;;;;;;;36.35;24.58;;;;;;;3.65;84.13;103363.03;5026687;28;20021;-76
2022/01/24 06:36:13;;;;;;;39.78;25.83;;;;;;;3.66;82.71;103369.13;5031776;28;20068;-75
2022/01/24 06:38:39;;;;;;;39.50;25.63;;;;;;;3.65;82.71;103368.25;5031023;28;20666;-76
2022/01/24 06:41:04;;;;;;;38.70;25.75;;;;;;;3.64;83.01;103361.31;5031177;28;20101;-76
2022/01/24 06:43:29;;;;;;;37.45;25.35;;;;;;;3.64;83.11;103361.31;5031088;28;20032;-76
2022/01/24 06:45:55;;;;;;;37.85;24.85;;;;;;;3.61;82.92;103356.13;5031727;28;20140;-76
2022/01/24 06:48:20;;;;;;;36.10;24.45;;;;;;;3.60;82.04;103362.22;5030073;28;20034;-76
2022/01/24 06:50:45;;;;;;;39.00;24.33;;;;;;;3.57;82.65;103363.91;5029929;28;20044;-76
2022/01/24 06:53:13;;;;;;;38.67;24.90;;;;;;;3.58;82.92;103366.53;5031573;28;20026;-76
2022/01/24 06:55:39;;;;;;;37.35;24.63;;;;;;;3.57;83.04;103375.19;5030739;28;20246;-77
2022/01/24 06:58:04;;;;;;;39.40;24.90;;;;;;;3.57;83.51;103372.59;5028851;28;20101;-76
2022/01/24 07:00:31;;;;;;;36.80;24.40;;;;;;;3.54;83.55;103372.63;5019451;28;20087;-76
2022/01/24 07:02:57;;;;;;;38.60;24.20;;;;;;;3.54;83.91;103375.22;5031288;28;20034;-76
2022/01/24 07:05:24;;;;;;;39.35;23.95;;;;;;;3.55;83.60;103374.34;5025258;28;20029;-76
2022/01/24 07:07:50;;;;;;;37.10;24.27;;;;;;;3.52;83.63;103370.88;5030575;28;20083;-76
2022/01/24 07:10:15;;;;;;;38.20;24.23;;;;;;;3.48;83.03;103370.03;5026403;28;20033;-76
2022/01/24 07:12:40;;;;;;;40.00;25.08;;;;;;;3.49;83.99;103379.56;5009977;28;20026;-76
2022/01/24 07:15:13;;;;;;;35.33;23.30;;;;;;;3.49;83.15;103379.56;5010844;28;20449;-76
2022/01/24 07:20:13;;;;;;;37.70;24.65;;;;;;;3.45;83.10;103377.84;5031272;28;20057;-76
2022/01/24 07:22:38;;;;;;;37.35;24.35;;;;;;;3.46;83.35;103383.06;5030855;28;20482;-77
2022/01/24 07:25:04;;;;;;;39.28;24.13;;;;;;;3.46;82.99;103390.00;5046379;28;20525;-76
2022/01/24 07:27:29;;;;;;;37.05;23.27;;;;;;;3.45;83.71;103396.06;5027430;28;20160;-76
2022/01/24 07:29:55;;;;;;;36.80;23.80;;;;;;;3.42;83.33;103385.69;5027399;28;20026;-76
2022/01/24 07:32:20;;;;;;;35.25;23.38;;;;;;;3.43;83.94;103380.47;5028038;28;20037;-76
2022/01/24 07:34:46;;;;;;;36.33;23.92;;;;;;;3.43;83.71;103390.00;5030673;28;20025;-76
2022/01/24 07:37:14;;;;;;;40.05;25.23;;;;;;;3.42;84.03;103388.28;5045555;28;20072;-76
2022/01/24 07:39:40;;;;;;;39.35;24.88;;;;;;;3.41;83.83;103386.56;5045624;28;20083;-76
2022/01/24 07:42:15;;;;;;;40.10;25.05;;;;;;;3.41;84.22;103383.94;5029265;28;20107;-76
2022/01/24 07:44:44;;;;;;;37.83;25.02;;;;;;;3.39;83.26;103385.69;5029028;28;20025;-76
2022/01/24 07:47:10;;;;;;;40.55;25.15;;;;;;;3.38;82.96;103381.34;5029254;28;20087;-76
2022/01/24 07:49:36;;;;;;;40.30;25.70;;;;;;;3.36;83.12;103385.69;5025880;28;20029;-76
2022/01/24 07:52:01;;;;;;;38.30;24.98;;;;;;;3.37;83.59;103390.03;5022651;28;20354;-76
2022/01/24 07:54:27;;;;;;;39.83;24.67;;;;;;;3.36;83.68;103396.97;5029094;28;20419;-76
2022/01/24 07:56:52;;;;;;;42.60;26.30;;;;;;;3.36;83.19;103396.13;5028516;28;20021;-77
2022/01/24 07:59:19;;;;;;;40.42;25.17;;;;;;;3.34;83.70;103397.84;5030285;28;20025;-77
2022/01/24 08:01:45;;;;;;;41.03;26.40;;;;;;;3.37;84.37;103410.84;5029172;28;20021;-77
2022/01/24 08:04:11;;;;;;;41.55;26.63;;;;;;;3.36;83.38;103412.59;5029748;28;20036;-77
2022/01/24 08:06:36;;;;;;;40.47;25.50;;;;;;;3.36;83.33;103414.31;5028728;28;20025;-77
2022/01/24 08:09:02;;;;;;;41.15;26.52;;;;;;;3.36;83.33;103416.94;5029894;28;20029;-77
2022/01/24 08:11:27;;;;;;;40.85;26.80;;;;;;;3.37;83.60;103418.66;5029279;28;20025;-78
2022/01/24 08:13:54;;;;;;;40.35;26.77;;;;;;;3.37;83.31;103418.66;5021308;28;20368;-77
2022/01/24 08:16:23;;;;;;;43.47;28.45;;;;;;;3.38;83.57;103425.59;5011732;28;20040;-77
2022/01/24 08:18:51;;;;;;;41.30;27.40;;;;;;;3.37;82.51;103413.47;5028627;28;20112;-77
2022/01/24 08:21:18;;;;;;;39.15;26.40;;;;;;;3.36;83.13;103423.00;5012597;28;20028;-77
2022/01/24 08:23:43;;;;;;;41.90;27.92;;;;;;;3.39;83.64;103424.72;5025021;28;20033;-78
2022/01/24 08:26:08;;;;;;;41.08;28.27;;;;;;;3.40;83.13;103423.84;5010053;28;20018;-77
2022/01/24 08:28:34;;;;;;;42.15;29.00;;;;;;;3.40;82.65;103422.13;5009375;28;20103;-76
2022/01/24 08:31:00;;;;;;;42.33;27.40;;;;;;;3.37;82.74;103411.72;5016059;28;20504;-76
2022/01/24 08:33:25;;;;;;;41.58;28.23;;;;;;;3.41;82.25;103429.06;5021769;28;20544;-76
2022/01/24 08:35:51;;;;;;;43.70;27.88;;;;;;;3.41;82.47;103428.19;5013778;28;20064;-76
2022/01/24 08:38:17;;;;;;;43.08;28.08;;;;;;;3.41;82.16;103429.06;5029344;28;20044;-76
2022/01/24 08:40:45;;;;;;;43.85;30.10;;;;;;;3.41;81.89;103425.59;5031183;28;20414;-76
2022/01/24 08:43:22;;;;;;;43.65;29.15;;;;;;;3.40;81.15;103423.84;5025466;28;20041;-76
2022/01/24 08:45:50;;;;;;;44.20;29.17;;;;;;;3.40;81.64;103427.31;5024445;28;20044;-76
2022/01/24 08:48:17;;;;;;;43.08;28.85;;;;;;;3.43;82.72;103418.63;5008068;28;20034;-75
2022/01/24 08:50:44;;;;;;;40.83;26.85;;;;;;;3.45;82.59;103422.09;5008891;28;20082;-75
2022/01/24 08:53:10;;;;;;;43.05;28.20;;;;;;;3.45;83.66;103428.16;5016286;28;20030;-76
2022/01/24 08:55:36;;;;;;;40.70;26.92;;;;;;;3.46;82.60;103423.84;5009102;28;20032;-75
2022/01/24 08:58:04;;;;;;;43.80;28.27;;;;;;;3.48;83.41;103442.91;5009057;28;20410;-77
2022/01/24 09:00:29;;;;;;;42.45;27.77;;;;;;;3.49;82.84;103433.38;5025018;28;20017;-77
2022/01/24 09:02:55;;;;;;;45.30;28.13;;;;;;;3.51;83.65;103426.41;5019181;28;20045;-76
2022/01/24 09:05:23;;;;;;;42.50;28.02;;;;;;;3.49;82.63;103423.81;5009775;28;20026;-76
2022/01/24 09:07:48;;;;;;;41.10;27.25;;;;;;;3.50;81.41;103428.16;5008717;28;20438;-77
2022/01/24 09:10:14;;;;;;;40.97;27.75;;;;;;;3.50;82.13;103430.75;5008425;28;20037;-76
2022/01/24 09:12:40;;;;;;;41.75;27.27;;;;;;;3.50;81.88;103433.34;5019921;28;20025;-76
2022/01/24 09:15:05;;;;;;;42.38;27.20;;;;;;;3.50;82.63;103430.75;5026188;28;20095;-76
2022/01/24 09:17:31;;;;;;;40.28;26.27;;;;;;;3.50;81.54;103435.09;5019715;28;20458;-76
2022/01/24 09:19:56;;;;;;;41.42;26.45;;;;;;;3.51;81.94;103429.03;5009408;28;20105;-76
2022/01/24 09:22:22;;;;;;;39.72;26.52;;;;;;;3.52;81.39;103436.81;5030977;28;20510;-77
2022/01/24 09:24:48;;;;;;;45.65;28.27;;;;;;;3.50;81.42;103435.09;5023527;28;20041;-75
2022/01/24 09:27:15;;;;;;;42.92;28.00;;;;;;;3.52;82.02;103439.44;5015111;28;20068;-77
2022/01/24 09:29:40;;;;;;;43.00;26.67;;;;;;;3.52;82.21;103436.81;5027108;28;20029;-77
2022/01/24 09:32:06;;;;;;;45.97;28.08;;;;;;;3.57;82.76;103435.06;5012152;28;20113;-76
2022/01/24 09:34:31;;;;;;;38.33;25.35;;;;;;;3.55;82.08;103434.22;5014449;28;20034;-77
2022/01/24 09:36:57;;;;;;;42.88;26.95;;;;;;;3.57;82.59;103422.06;5022836;28;20041;-75
2022/01/24 09:39:22;;;;;;;40.00;26.33;;;;;;;3.56;82.13;103422.94;5020269;28;20457;-76
2022/01/24 09:41:47;;;;;;;39.40;26.10;;;;;;;3.58;81.64;103426.38;5020025;28;20445;-73
2022/01/24 09:44:13;;;;;;;40.45;24.95;;;;;;;3.61;82.46;103426.41;5023932;23;20050;-88
2022/01/24 09:46:40;;;;;;;41.20;26.27;;;;;;;3.57;80.55;103426.41;4968605;28;20026;-84
2022/01/24 09:49:06;;;;;;;38.08;24.58;;;;;;;3.58;81.23;103434.19;4976603;28;20029;-87
2022/01/24 09:51:32;;;;;;;37.75;24.20;;;;;;;3.57;80.82;103427.25;4970943;28;20034;-87
2022/01/24 09:53:58;;;;;;;39.00;24.90;;;;;;;3.57;81.60;103424.66;4963958;28;20121;-87
2022/01/24 09:56:23;;;;;;;38.60;23.73;;;;;;;3.61;81.29;103426.41;4972973;28;20038;-87
2022/01/24 09:58:49;;;;;;;34.90;23.35;;;;;;;3.63;80.74;103427.25;4981717;28;20395;-90
2022/01/24 10:01:15;;;;;;;37.38;23.52;;;;;;;3.60;79.90;103419.47;4977072;28;20454;-90
2022/01/24 10:04:04;;;;;;;36.78;22.70;;;;;;;3.66;80.43;103427.25;4971285;28;20022;-87
2022/01/24 10:07:07;;;;;;;35.30;23.45;;;;;;;3.65;80.27;103425.53;4982055;28;20085;-87
2022/01/24 10:09:46;;;;;;;37.03;22.48;;;;;;;3.67;80.41;103423.78;4973859;28;20035;-87
2022/01/24 10:17:36;;;;;;;38.45;24.48;;;;;;;3.66;80.58;103432.47;4976530;28;20046;-90
2022/01/24 10:20:30;;;;;;;37.97;24.08;;;;;;;3.70;81.31;103418.56;4956265;28;20027;-86
2022/01/24 10:23:09;;;;;;;38.83;23.85;;;;;;;3.72;80.96;103427.22;4974434;28;20026;-87
2022/01/24 10:25:48;;;;;;;36.63;23.17;;;;;;;3.73;80.51;103431.56;4973920;28;20046;-90
2022/01/24 10:28:32;;;;;;;37.20;23.35;;;;;;;3.69;80.21;103416.81;4973573;28;20091;-91
2022/01/24 10:31:06;;;;;;;36.47;24.35;;;;;;;3.75;81.40;103422.00;4971324;28;20033;-90
2022/01/24 10:33:49;;;;;;;36.75;23.80;;;;;;;3.77;81.76;103417.66;4970308;28;20081;-87
2022/01/24 10:36:25;;;;;;;39.25;22.52;;;;;;;3.79;81.82;103422.84;4971480;28;20073;-87
2022/01/24 10:38:55;;;;;;;36.40;22.73;;;;;;;3.79;80.75;103407.22;4971269;28;20171;-87
2022/01/24 10:41:22;;;;;;;35.08;22.60;;;;;;;3.84;80.46;103418.50;4954805;28;20018;-87
2022/01/24 10:43:50;;;;;;;37.08;23.63;;;;;;;3.79;78.95;103412.44;4974853;28;20039;-88
2022/01/24 10:46:27;;;;;;;35.78;23.20;;;;;;;3.84;78.84;103415.00;4961698;28;20026;-84
2022/01/24 10:49:09;;;;;;;37.10;24.23;;;;;;;3.84;79.09;103409.81;4972001;28;20086;-84
2022/01/24 10:51:44;;;;;;;36.17;23.67;;;;;;;3.85;79.47;103406.34;4971980;28;20030;-87
2022/01/24 10:54:13;;;;;;;37.63;24.13;;;;;;;3.85;79.59;103406.34;4973881;28;20027;-87
2022/01/24 10:56:44;;;;;;;34.88;22.98;;;;;;;3.88;79.99;103401.97;4969404;28;20025;-86
2022/01/24 10:59:10;;;;;;;35.90;23.40;;;;;;;3.96;80.04;103409.75;4975069;28;20049;-87
2022/01/24 11:01:36;;;;;;;35.80;23.15;;;;;;;3.93;80.00;103404.53;4972852;28;20026;-87
2022/01/24 11:04:07;;;;;;;35.55;23.58;;;;;;;3.97;79.89;103408.88;4971289;28;20440;-86
2022/01/24 11:06:41;;;;;;;35.78;23.75;;;;;;;3.94;79.50;103391.53;4971180;28;20042;-87
2022/01/24 11:09:34;;;;;;;36.60;24.42;;;;;;;4.04;80.35;103402.78;4969696;28;20093;-87
2022/01/24 11:12:01;;;;;;;;;;;;;;;4.11;81.14;103403.59;4950639;28;20495;-85
2022/01/24 11:14:28;;;;;;;38.85;24.13;;;;;;;4.06;80.03;103407.09;4993782;28;19918;-89
2022/01/24 11:16:57;;;;;;;37.22;23.70;;;;;;;4.05;79.98;103394.09;4961221;28;20033;-89
2022/01/24 11:21:52;;;;;;;37.42;23.23;;;;;;;4.06;80.62;103390.59;4971544;28;20081;-87
2022/01/24 11:24:22;;;;;;;40.47;24.98;;;;;;;4.07;79.54;103389.72;4970895;28;20045;-86
2022/01/24 11:26:47;;;;;;;39.63;25.70;;;;;;;4.10;79.87;103392.31;4970909;28;20058;-90
2022/01/24 11:29:17;;;;;;;39.70;25.83;;;;;;;4.16;79.42;103392.28;4953501;28;20058;-86
2022/01/24 11:31:49;;;;;;;37.67;25.35;;;;;;;4.12;79.42;103381.88;4970437;28;20037;-86
2022/01/24 11:34:47;;;;;;;40.20;25.88;;;;;;;4.21;80.76;103387.91;4960755;28;20101;-86
2022/01/24 11:37:35;;;;;;;39.70;27.05;;;;;;;4.19;80.14;103383.56;4953955;28;20034;-89
2022/01/24 11:40:13;;;;;;;37.92;26.42;;;;;;;4.19;79.17;103387.03;4963386;28;20054;-86
2022/01/24 11:42:41;;;;;;;40.13;26.90;;;;;;;4.14;78.99;103387.94;4969347;28;20026;-88
2022/01/24 11:45:14;;;;;;;38.05;25.17;;;;;;;4.17;79.24;103390.53;4991645;28;20057;-87
2022/01/24 11:47:42;;;;;;;40.72;26.65;;;;;;;4.17;79.56;103383.59;4971451;28;20038;-86
2022/01/24 11:50:37;;;;;;;44.78;28.40;;;;;;;4.28;80.07;103386.97;4970530;28;20062;-86
2022/01/24 11:53:24;;;;;;;45.33;28.98;;;;;;;4.28;79.62;103381.75;4939677;28;20073;-85
2022/01/24 11:55:50;;;;;;;42.95;26.88;;;;;;;4.20;79.25;103373.13;4961878;28;20022;-89
2022/01/24 11:58:27;;;;;;;39.53;26.42;;;;;;;4.21;78.85;103374.88;4964557;28;20390;-89
2022/01/24 12:00:55;;;;;;;43.92;26.77;;;;;;;4.24;78.10;103377.44;4970889;28;20129;-85
2022/01/24 12:03:27;;;;;;;43.53;28.75;;;;;;;4.24;78.64;103371.38;4968193;28;20026;-85
2022/01/24 12:05:58;;;;;;;41.90;28.25;;;;;;;4.21;78.12;103356.63;4993233;28;20134;-89
2022/01/24 12:08:38;;;;;;;38.63;27.00;;;;;;;4.24;78.25;103358.34;4969643;28;20023;-89
2022/01/24 12:11:10;;;;;;;42.70;27.17;;;;;;;4.26;77.59;103362.66;4977318;28;20030;-89
2022/01/24 12:13:43;;;;;;;43.03;29.08;;;;;;;4.27;78.40;103359.19;4967976;28;20050;-89
2022/01/24 12:16:10;;;;;;;42.63;28.92;;;;;;;4.25;79.43;103355.72;4971759;28;20027;-85
2022/01/24 12:18:36;;;;;;;36.45;25.38;;;;;;;4.29;78.55;103359.16;4956214;28;20033;-89
2022/01/24 12:21:03;;;;;;;43.08;28.92;;;;;;;4.30;78.50;103361.75;4970481;28;20046;-88
2022/01/24 12:23:33;;;;;;;47.00;29.83;;;;;;;4.32;78.87;103365.22;4969919;28;20399;-89
2022/01/24 12:26:08;;;;;;;43.90;28.90;;;;;;;4.29;78.55;103352.22;4969389;28;20038;-86
2022/01/24 12:28:42;;;;;;;44.45;28.35;;;;;;;4.36;78.39;103360.84;4970575;28;20492;-89
2022/01/24 12:31:09;;;;;;;41.47;27.88;;;;;;;4.38;79.11;103359.97;4970502;28;20022;-85
2022/01/24 12:33:36;;;;;;;40.55;27.42;;;;;;;4.34;78.59;103347.81;4969456;28;20043;-86
2022/01/24 12:36:04;;;;;;;40.60;28.10;;;;;;;4.36;78.51;103343.47;4991731;28;20495;-89
2022/01/24 12:38:58;;;;;;;40.97;27.48;;;;;;;4.45;79.63;103346.91;4970022;28;20089;-86
2022/01/24 12:41:35;;;;;;;38.40;25.83;;;;;;;4.46;78.46;103359.06;4961170;28;20043;-86
2022/01/24 12:46:30;;;;;;;39.60;26.05;;;;;;;4.47;77.58;103339.94;4968499;28;20034;-89
2022/01/24 12:48:57;;;;;;;40.05;25.42;;;;;;;4.49;78.41;103343.41;4970177;28;20031;-88
2022/01/24 12:51:29;;;;;;;39.22;24.77;;;;;;;4.49;78.99;103335.56;4969786;28;20506;-86
2022/01/24 12:53:56;;;;;;;39.42;25.38;;;;;;;4.54;78.07;103336.38;4967195;28;20031;-85
2022/01/24 12:56:30;;;;;;;38.65;25.30;;;;;;;4.53;79.00;103339.88;4957023;28;20031;-85
2022/01/24 12:58:56;;;;;;;37.85;25.27;;;;;;;4.55;78.69;103327.69;4952008;28;20030;-88
2022/01/24 13:01:26;;;;;;;38.38;24.90;;;;;;;4.55;77.67;103332.91;4967562;28;20034;-85
2022/01/24 13:03:57;;;;;;;37.67;25.45;;;;;;;4.60;78.51;103331.97;4992835;28;20109;-85
2022/01/24 13:06:25;;;;;;;36.13;24.23;;;;;;;4.59;78.14;103330.25;4967516;28;20098;-89
2022/01/24 13:08:58;;;;;;;36.50;24.58;;;;;;;4.61;78.21;103318.06;4959675;28;20035;-89
2022/01/24 13:11:27;;;;;;;37.90;24.98;;;;;;;4.60;76.29;103323.28;4969252;28;20497;-85
2022/01/24 13:14:20;;;;;;;37.22;24.52;;;;;;;4.61;76.83;103317.19;4959274;28;20042;-86
2022/01/24 13:22:43;;;;;;;39.93;25.63;;;;;;;4.57;76.84;103307.69;4968778;28;20066;-85
2022/01/24 13:25:10;;;;;;;40.10;26.25;;;;;;;4.62;76.58;103313.72;4969964;28;20101;-85
2022/01/24 13:27:41;;;;;;;36.78;24.85;;;;;;;4.61;77.23;103312.00;4965167;28;20027;-85
2022/01/24 13:30:14;;;;;;;38.65;25.77;;;;;;;4.57;76.79;103312.91;4952238;28;20445;-86